sensor_id;sensor_type;location;lat;lon;timestamp;P1;durP1;ratioP1;P2;durP2;ratioP2
63714;SDS011;49858;48.956;9.076;2022-11-13T00:02:44;58.03;;;21.73;;
63714;SDS011;49858;48.956;9.076;2022-11-13T00:05:31;56.45;;;21.60;;
63714;SDS011;49858;48.956;9.076;2022-11-13T00:08:17;65.65;;;23.70;;
63714;SDS011;49858;48.956;9.076;2022-11-13T00:11:04;48.10;;;22.40;;
63714;SDS011;49858;48.956;9.076;2022-11-13T00:13:53;78.45;;;24.52;;
63714;SDS011;49858;48.956;9.076;2022-11-13T00:16:39;83.82;;;23.02;;
63714;SDS011;49858;48.956;9.076;2022-11-13T00:19:25;57.10;;;23.92;;
63714;SDS011;49858;48.956;9.076;2022-11-13T00:22:11;46.85;;;23.65;;
63714;SDS011;49858;48.956;9.076;2022-11-13T00:24:58;86.32;;;25.88;;
63714;SDS011;49858;48.956;9.076;2022-11-13T00:27:44;65.47;;;23.13;;
63714;SDS011;49858;48.956;9.076;2022-11-13T00:30:31;73.40;;;24.75;;
63714;SDS011;49858;48.956;9.076;2022-11-13T00:33:18;82.25;;;23.95;;
63714;SDS011;49858;48.956;9.076;2022-11-13T00:36:24;80.80;;;26.50;;
63714;SDS011;49858;48.956;9.076;2022-11-13T00:39:12;52.83;;;22.52;;
63714;SDS011;49858;48.956;9.076;2022-11-13T00:41:58;57.55;;;23.92;;
63714;SDS011;49858;48.956;9.076;2022-11-13T00:44:44;67.43;;;24.83;;
63714;SDS011;49858;48.956;9.076;2022-11-13T00:47:32;73.57;;;26.17;;
63714;SDS011;49858;48.956;9.076;2022-11-13T00:50:18;47.35;;;23.33;;
63714;SDS011;49858;48.956;9.076;2022-11-13T00:53:04;60.30;;;24.65;;
63714;SDS011;49858;48.956;9.076;2022-11-13T00:55:51;60.83;;;25.30;;
63714;SDS011;49858;48.956;9.076;2022-11-13T00:58:37;53.15;;;23.35;;
63714;SDS011;49858;48.956;9.076;2022-11-13T01:01:23;78.05;;;25.42;;
63714;SDS011;49858;48.956;9.076;2022-11-13T01:04:11;77.38;;;23.38;;
63714;SDS011;49858;48.956;9.076;2022-11-13T01:06:57;68.70;;;24.65;;
63714;SDS011;49858;48.956;9.076;2022-11-13T01:09:47;63.20;;;24.95;;
63714;SDS011;49858;48.956;9.076;2022-11-13T01:12:34;97.75;;;25.80;;
63714;SDS011;49858;48.956;9.076;2022-11-13T01:15:21;54.50;;;23.10;;
63714;SDS011;49858;48.956;9.076;2022-11-13T01:18:07;106.00;;;28.55;;
63714;SDS011;49858;48.956;9.076;2022-11-13T01:21:02;123.28;;;28.33;;
63714;SDS011;49858;48.956;9.076;2022-11-13T01:23:49;118.88;;;28.38;;
63714;SDS011;49858;48.956;9.076;2022-11-13T01:26:37;159.00;;;29.35;;
63714;SDS011;49858;48.956;9.076;2022-11-13T01:29:23;120.25;;;28.00;;
63714;SDS011;49858;48.956;9.076;2022-11-13T01:32:09;120.95;;;28.52;;
63714;SDS011;49858;48.956;9.076;2022-11-13T01:34:55;147.90;;;28.33;;
63714;SDS011;49858;48.956;9.076;2022-11-13T01:37:43;160.88;;;27.92;;
63714;SDS011;49858;48.956;9.076;2022-11-13T01:40:30;72.38;;;26.15;;
63714;SDS011;49858;48.956;9.076;2022-11-13T01:43:25;84.43;;;28.52;;
63714;SDS011;49858;48.956;9.076;2022-11-13T01:46:24;86.50;;;26.13;;
63714;SDS011;49858;48.956;9.076;2022-11-13T01:49:14;76.90;;;26.75;;
63714;SDS011;49858;48.956;9.076;2022-11-13T01:52:10;94.75;;;27.90;;
63714;SDS011;49858;48.956;9.076;2022-11-13T01:55:02;62.08;;;25.92;;
63714;SDS011;49858;48.956;9.076;2022-11-13T01:57:53;108.70;;;27.77;;
63714;SDS011;49858;48.956;9.076;2022-11-13T02:00:40;103.50;;;25.02;;
63714;SDS011;49858;48.956;9.076;2022-11-13T02:03:26;98.80;;;27.65;;
63714;SDS011;49858;48.956;9.076;2022-11-13T02:06:13;82.93;;;28.25;;
63714;SDS011;49858;48.956;9.076;2022-11-13T02:08:59;79.88;;;29.20;;
63714;SDS011;49858;48.956;9.076;2022-11-13T02:11:47;49.83;;;23.52;;
63714;SDS011;49858;48.956;9.076;2022-11-13T02:14:34;99.32;;;25.98;;
63714;SDS011;49858;48.956;9.076;2022-11-13T02:17:24;70.53;;;26.40;;
63714;SDS011;49858;48.956;9.076;2022-11-13T02:20:15;56.72;;;27.42;;
63714;SDS011;49858;48.956;9.076;2022-11-13T02:23:06;62.22;;;25.75;;
63714;SDS011;49858;48.956;9.076;2022-11-13T02:25:59;50.58;;;24.90;;
63714;SDS011;49858;48.956;9.076;2022-11-13T02:28:47;64.82;;;23.73;;
63714;SDS011;49858;48.956;9.076;2022-11-13T02:31:33;62.50;;;22.33;;
63714;SDS011;49858;48.956;9.076;2022-11-13T02:34:19;71.35;;;22.42;;
63714;SDS011;49858;48.956;9.076;2022-11-13T02:37:05;49.10;;;21.17;;
63714;SDS011;49858;48.956;9.076;2022-11-13T02:39:52;48.78;;;20.42;;
63714;SDS011;49858;48.956;9.076;2022-11-13T02:42:39;48.63;;;23.27;;
63714;SDS011;49858;48.956;9.076;2022-11-13T02:45:25;50.17;;;20.75;;
63714;SDS011;49858;48.956;9.076;2022-11-13T02:48:11;60.30;;;22.40;;
63714;SDS011;49858;48.956;9.076;2022-11-13T02:50:58;44.05;;;20.10;;
63714;SDS011;49858;48.956;9.076;2022-11-13T02:53:45;43.10;;;21.52;;
63714;SDS011;49858;48.956;9.076;2022-11-13T02:56:31;47.92;;;19.77;;
63714;SDS011;49858;48.956;9.076;2022-11-13T02:59:18;30.77;;;16.70;;
63714;SDS011;49858;48.956;9.076;2022-11-13T03:02:04;34.10;;;18.00;;
63714;SDS011;49858;48.956;9.076;2022-11-13T03:04:51;43.47;;;19.25;;
63714;SDS011;49858;48.956;9.076;2022-11-13T03:07:57;43.67;;;19.20;;
63714;SDS011;49858;48.956;9.076;2022-11-13T03:10:43;37.53;;;18.52;;
63714;SDS011;49858;48.956;9.076;2022-11-13T03:13:29;35.63;;;17.35;;
63714;SDS011;49858;48.956;9.076;2022-11-13T03:16:17;32.88;;;16.40;;
63714;SDS011;49858;48.956;9.076;2022-11-13T03:19:03;38.30;;;17.50;;
63714;SDS011;49858;48.956;9.076;2022-11-13T03:21:49;27.73;;;14.68;;
63714;SDS011;49858;48.956;9.076;2022-11-13T03:24:35;29.20;;;14.98;;
63714;SDS011;49858;48.956;9.076;2022-11-13T03:27:21;28.73;;;15.88;;
63714;SDS011;49858;48.956;9.076;2022-11-13T03:30:08;32.88;;;14.82;;
63714;SDS011;49858;48.956;9.076;2022-11-13T03:32:56;31.67;;;13.98;;
63714;SDS011;49858;48.956;9.076;2022-11-13T03:35:42;32.42;;;15.18;;
63714;SDS011;49858;48.956;9.076;2022-11-13T03:38:30;26.65;;;13.65;;
63714;SDS011;49858;48.956;9.076;2022-11-13T03:41:17;22.40;;;11.52;;
63714;SDS011;49858;48.956;9.076;2022-11-13T03:44:03;26.02;;;14.32;;
63714;SDS011;49858;48.956;9.076;2022-11-13T03:46:49;58.55;;;15.55;;
63714;SDS011;49858;48.956;9.076;2022-11-13T03:49:38;46.20;;;14.88;;
63714;SDS011;49858;48.956;9.076;2022-11-13T03:52:24;18.70;;;11.45;;
63714;SDS011;49858;48.956;9.076;2022-11-13T03:55:10;48.67;;;15.75;;
63714;SDS011;49858;48.956;9.076;2022-11-13T03:57:57;56.95;;;16.00;;
63714;SDS011;49858;48.956;9.076;2022-11-13T04:00:43;33.80;;;12.88;;
63714;SDS011;49858;48.956;9.076;2022-11-13T04:03:30;30.75;;;14.63;;
63714;SDS011;49858;48.956;9.076;2022-11-13T04:06:18;35.40;;;14.38;;
63714;SDS011;49858;48.956;9.076;2022-11-13T04:09:06;28.23;;;15.55;;
63714;SDS011;49858;48.956;9.076;2022-11-13T04:11:52;25.77;;;13.45;;
63714;SDS011;49858;48.956;9.076;2022-11-13T04:14:38;25.58;;;13.90;;
63714;SDS011;49858;48.956;9.076;2022-11-13T04:17:25;26.10;;;13.38;;
63714;SDS011;49858;48.956;9.076;2022-11-13T04:20:11;25.48;;;13.40;;
63714;SDS011;49858;48.956;9.076;2022-11-13T04:22:58;31.65;;;14.23;;
63714;SDS011;49858;48.956;9.076;2022-11-13T04:25:47;28.15;;;13.30;;
63714;SDS011;49858;48.956;9.076;2022-11-13T04:28:33;25.27;;;12.73;;
63714;SDS011;49858;48.956;9.076;2022-11-13T04:31:19;26.60;;;12.88;;
63714;SDS011;49858;48.956;9.076;2022-11-13T04:34:06;23.50;;;12.43;;
63714;SDS011;49858;48.956;9.076;2022-11-13T04:36:53;23.48;;;12.70;;
63714;SDS011;49858;48.956;9.076;2022-11-13T04:39:40;36.42;;;12.27;;
63714;SDS011;49858;48.956;9.076;2022-11-13T04:42:27;23.63;;;12.10;;
63714;SDS011;49858;48.956;9.076;2022-11-13T04:45:30;36.75;;;12.13;;
63714;SDS011;49858;48.956;9.076;2022-11-13T04:48:16;26.73;;;12.82;;
63714;SDS011;49858;48.956;9.076;2022-11-13T04:51:03;23.05;;;13.95;;
63714;SDS011;49858;48.956;9.076;2022-11-13T04:53:49;27.90;;;14.75;;
63714;SDS011;49858;48.956;9.076;2022-11-13T04:56:37;26.92;;;13.55;;
63714;SDS011;49858;48.956;9.076;2022-11-13T04:59:23;27.23;;;13.65;;
63714;SDS011;49858;48.956;9.076;2022-11-13T05:02:09;19.58;;;12.25;;
63714;SDS011;49858;48.956;9.076;2022-11-13T05:04:56;24.77;;;13.27;;
63714;SDS011;49858;48.956;9.076;2022-11-13T05:07:48;32.40;;;12.73;;
63714;SDS011;49858;48.956;9.076;2022-11-13T05:10:35;23.90;;;12.18;;
63714;SDS011;49858;48.956;9.076;2022-11-13T05:13:23;26.63;;;13.40;;
63714;SDS011;49858;48.956;9.076;2022-11-13T05:16:11;18.17;;;10.57;;
63714;SDS011;49858;48.956;9.076;2022-11-13T05:18:58;21.67;;;10.73;;
63714;SDS011;49858;48.956;9.076;2022-11-13T05:21:45;21.00;;;10.45;;
63714;SDS011;49858;48.956;9.076;2022-11-13T05:24:31;11.73;;;7.45;;
63714;SDS011;49858;48.956;9.076;2022-11-13T05:27:17;10.95;;;7.80;;
63714;SDS011;49858;48.956;9.076;2022-11-13T05:30:05;16.52;;;9.65;;
63714;SDS011;49858;48.956;9.076;2022-11-13T05:32:53;15.18;;;8.02;;
63714;SDS011;49858;48.956;9.076;2022-11-13T05:35:39;17.55;;;8.95;;
63714;SDS011;49858;48.956;9.076;2022-11-13T05:38:26;12.73;;;8.45;;
63714;SDS011;49858;48.956;9.076;2022-11-13T05:41:15;14.38;;;8.60;;
63714;SDS011;49858;48.956;9.076;2022-11-13T05:44:02;11.48;;;6.68;;
63714;SDS011;49858;48.956;9.076;2022-11-13T05:46:50;10.65;;;7.22;;
63714;SDS011;49858;48.956;9.076;2022-11-13T05:49:36;14.50;;;8.77;;
63714;SDS011;49858;48.956;9.076;2022-11-13T05:52:22;13.43;;;8.27;;
63714;SDS011;49858;48.956;9.076;2022-11-13T05:55:08;16.33;;;8.95;;
63714;SDS011;49858;48.956;9.076;2022-11-13T05:57:54;15.88;;;9.02;;
63714;SDS011;49858;48.956;9.076;2022-11-13T06:00:43;15.23;;;8.23;;
63714;SDS011;49858;48.956;9.076;2022-11-13T06:03:30;15.50;;;8.65;;
63714;SDS011;49858;48.956;9.076;2022-11-13T06:06:17;14.88;;;8.07;;
63714;SDS011;49858;48.956;9.076;2022-11-13T06:09:05;13.45;;;7.53;;
63714;SDS011;49858;48.956;9.076;2022-11-13T06:11:51;11.07;;;7.15;;
63714;SDS011;49858;48.956;9.076;2022-11-13T06:14:37;13.35;;;8.10;;
63714;SDS011;49858;48.956;9.076;2022-11-13T06:17:23;13.40;;;7.45;;
63714;SDS011;49858;48.956;9.076;2022-11-13T06:20:11;13.82;;;9.23;;
63714;SDS011;49858;48.956;9.076;2022-11-13T06:22:57;18.52;;;11.00;;
63714;SDS011;49858;48.956;9.076;2022-11-13T06:25:43;14.80;;;7.35;;
63714;SDS011;49858;48.956;9.076;2022-11-13T06:28:30;17.23;;;9.63;;
63714;SDS011;49858;48.956;9.076;2022-11-13T06:31:18;20.83;;;10.45;;
63714;SDS011;49858;48.956;9.076;2022-11-13T06:34:05;24.02;;;12.77;;
63714;SDS011;49858;48.956;9.076;2022-11-13T06:36:53;24.80;;;11.25;;
63714;SDS011;49858;48.956;9.076;2022-11-13T06:39:40;18.90;;;10.45;;
63714;SDS011;49858;48.956;9.076;2022-11-13T06:42:26;19.80;;;9.70;;
63714;SDS011;49858;48.956;9.076;2022-11-13T06:45:12;24.15;;;12.02;;
63714;SDS011;49858;48.956;9.076;2022-11-13T06:47:58;27.63;;;12.82;;
63714;SDS011;49858;48.956;9.076;2022-11-13T06:50:44;22.30;;;11.38;;
63714;SDS011;49858;48.956;9.076;2022-11-13T06:53:34;19.67;;;10.77;;
63714;SDS011;49858;48.956;9.076;2022-11-13T06:56:20;28.65;;;14.30;;
63714;SDS011;49858;48.956;9.076;2022-11-13T06:59:07;29.30;;;12.48;;
63714;SDS011;49858;48.956;9.076;2022-11-13T07:01:54;27.67;;;13.05;;
63714;SDS011;49858;48.956;9.076;2022-11-13T07:04:40;35.75;;;15.52;;
63714;SDS011;49858;48.956;9.076;2022-11-13T07:07:26;31.63;;;14.68;;
63714;SDS011;49858;48.956;9.076;2022-11-13T07:10:13;25.13;;;14.18;;
63714;SDS011;49858;48.956;9.076;2022-11-13T07:13:00;53.03;;;18.25;;
63714;SDS011;49858;48.956;9.076;2022-11-13T07:15:46;39.70;;;15.38;;
63714;SDS011;49858;48.956;9.076;2022-11-13T07:18:32;59.33;;;17.02;;
63714;SDS011;49858;48.956;9.076;2022-11-13T07:21:20;32.60;;;13.90;;
63714;SDS011;49858;48.956;9.076;2022-11-13T07:24:07;33.38;;;14.15;;
63714;SDS011;49858;48.956;9.076;2022-11-13T07:27:02;40.85;;;17.30;;
63714;SDS011;49858;48.956;9.076;2022-11-13T07:29:48;29.88;;;15.25;;
63714;SDS011;49858;48.956;9.076;2022-11-13T07:32:34;32.92;;;14.18;;
63714;SDS011;49858;48.956;9.076;2022-11-13T07:35:21;38.60;;;15.27;;
63714;SDS011;49858;48.956;9.076;2022-11-13T07:38:07;36.90;;;15.73;;
63714;SDS011;49858;48.956;9.076;2022-11-13T07:40:53;42.50;;;15.88;;
63714;SDS011;49858;48.956;9.076;2022-11-13T07:43:40;36.13;;;15.57;;
63714;SDS011;49858;48.956;9.076;2022-11-13T07:46:26;44.08;;;17.55;;
63714;SDS011;49858;48.956;9.076;2022-11-13T07:49:13;46.45;;;17.30;;
63714;SDS011;49858;48.956;9.076;2022-11-13T07:51:59;48.67;;;18.48;;
63714;SDS011;49858;48.956;9.076;2022-11-13T07:54:45;60.47;;;18.38;;
63714;SDS011;49858;48.956;9.076;2022-11-13T07:57:31;66.50;;;17.88;;
63714;SDS011;49858;48.956;9.076;2022-11-13T08:00:18;46.63;;;16.63;;
63714;SDS011;49858;48.956;9.076;2022-11-13T08:03:05;35.13;;;16.67;;
63714;SDS011;49858;48.956;9.076;2022-11-13T08:05:52;51.97;;;20.70;;
63714;SDS011;49858;48.956;9.076;2022-11-13T08:08:45;53.40;;;18.08;;
63714;SDS011;49858;48.956;9.076;2022-11-13T08:11:32;59.15;;;21.05;;
63714;SDS011;49858;48.956;9.076;2022-11-13T08:14:18;51.67;;;21.70;;
63714;SDS011;49858;48.956;9.076;2022-11-13T08:17:06;50.25;;;19.02;;
63714;SDS011;49858;48.956;9.076;2022-11-13T08:19:52;52.55;;;20.48;;
63714;SDS011;49858;48.956;9.076;2022-11-13T08:22:38;58.30;;;21.52;;
63714;SDS011;49858;48.956;9.076;2022-11-13T08:25:24;57.28;;;21.65;;
63714;SDS011;49858;48.956;9.076;2022-11-13T08:28:10;49.35;;;19.42;;
63714;SDS011;49858;48.956;9.076;2022-11-13T08:30:57;54.70;;;19.80;;
63714;SDS011;49858;48.956;9.076;2022-11-13T08:33:45;55.00;;;19.42;;
63714;SDS011;49858;48.956;9.076;2022-11-13T08:36:31;55.83;;;19.10;;
63714;SDS011;49858;48.956;9.076;2022-11-13T08:39:17;60.20;;;20.77;;
63714;SDS011;49858;48.956;9.076;2022-11-13T08:42:03;55.00;;;19.95;;
63714;SDS011;49858;48.956;9.076;2022-11-13T08:44:50;56.25;;;20.40;;
63714;SDS011;49858;48.956;9.076;2022-11-13T08:47:36;61.85;;;20.70;;
63714;SDS011;49858;48.956;9.076;2022-11-13T08:50:24;67.40;;;24.02;;
63714;SDS011;49858;48.956;9.076;2022-11-13T08:53:10;58.40;;;21.92;;
63714;SDS011;49858;48.956;9.076;2022-11-13T08:55:58;60.53;;;22.63;;
63714;SDS011;49858;48.956;9.076;2022-11-13T08:58:45;60.67;;;21.73;;
63714;SDS011;49858;48.956;9.076;2022-11-13T09:01:34;54.83;;;21.15;;
63714;SDS011;49858;48.956;9.076;2022-11-13T09:04:20;63.65;;;24.70;;
63714;SDS011;49858;48.956;9.076;2022-11-13T09:07:07;51.20;;;20.63;;
63714;SDS011;49858;48.956;9.076;2022-11-13T09:09:55;52.08;;;22.50;;
63714;SDS011;49858;48.956;9.076;2022-11-13T09:12:41;54.50;;;21.45;;
63714;SDS011;49858;48.956;9.076;2022-11-13T09:15:27;38.08;;;18.17;;
63714;SDS011;49858;48.956;9.076;2022-11-13T09:18:14;31.95;;;16.55;;
63714;SDS011;49858;48.956;9.076;2022-11-13T09:21:00;21.98;;;13.02;;
63714;SDS011;49858;48.956;9.076;2022-11-13T09:23:49;22.80;;;12.63;;
63714;SDS011;49858;48.956;9.076;2022-11-13T09:26:35;18.45;;;11.00;;
63714;SDS011;49858;48.956;9.076;2022-11-13T09:29:22;17.13;;;11.45;;
63714;SDS011;49858;48.956;9.076;2022-11-13T09:32:09;16.92;;;9.95;;
63714;SDS011;49858;48.956;9.076;2022-11-13T09:34:55;18.58;;;10.82;;
63714;SDS011;49858;48.956;9.076;2022-11-13T09:37:42;18.40;;;11.18;;
63714;SDS011;49858;48.956;9.076;2022-11-13T09:40:31;21.17;;;10.90;;
63714;SDS011;49858;48.956;9.076;2022-11-13T09:43:26;19.33;;;10.65;;
63714;SDS011;49858;48.956;9.076;2022-11-13T09:46:20;21.10;;;11.02;;
63714;SDS011;49858;48.956;9.076;2022-11-13T09:49:16;16.65;;;10.48;;
63714;SDS011;49858;48.956;9.076;2022-11-13T09:52:09;18.95;;;10.65;;
63714;SDS011;49858;48.956;9.076;2022-11-13T09:54:59;19.75;;;11.52;;
63714;SDS011;49858;48.956;9.076;2022-11-13T09:57:48;18.48;;;10.63;;
63714;SDS011;49858;48.956;9.076;2022-11-13T10:00:38;17.13;;;10.32;;
63714;SDS011;49858;48.956;9.076;2022-11-13T10:03:28;18.05;;;10.82;;
63714;SDS011;49858;48.956;9.076;2022-11-13T10:06:45;15.35;;;9.85;;
63714;SDS011;49858;48.956;9.076;2022-11-13T10:09:44;18.50;;;10.65;;
63714;SDS011;49858;48.956;9.076;2022-11-13T10:12:39;16.33;;;10.48;;
63714;SDS011;49858;48.956;9.076;2022-11-13T10:15:26;20.40;;;10.50;;
63714;SDS011;49858;48.956;9.076;2022-11-13T10:18:14;18.55;;;10.10;;
63714;SDS011;49858;48.956;9.076;2022-11-13T10:21:08;16.92;;;9.60;;
63714;SDS011;49858;48.956;9.076;2022-11-13T10:24:03;17.33;;;10.65;;
63714;SDS011;49858;48.956;9.076;2022-11-13T10:26:58;17.70;;;10.20;;
63714;SDS011;49858;48.956;9.076;2022-11-13T10:29:45;20.52;;;12.05;;
63714;SDS011;49858;48.956;9.076;2022-11-13T10:32:34;16.88;;;9.77;;
63714;SDS011;49858;48.956;9.076;2022-11-13T10:35:25;13.32;;;9.15;;
63714;SDS011;49858;48.956;9.076;2022-11-13T10:38:24;11.85;;;8.23;;
63714;SDS011;49858;48.956;9.076;2022-11-13T10:41:17;12.35;;;8.65;;
63714;SDS011;49858;48.956;9.076;2022-11-13T10:44:05;14.52;;;8.73;;
63714;SDS011;49858;48.956;9.076;2022-11-13T10:47:02;14.68;;;8.95;;
63714;SDS011;49858;48.956;9.076;2022-11-13T10:49:51;12.75;;;8.57;;
63714;SDS011;49858;48.956;9.076;2022-11-13T10:52:43;15.02;;;10.18;;
63714;SDS011;49858;48.956;9.076;2022-11-13T10:55:34;12.32;;;8.57;;
63714;SDS011;49858;48.956;9.076;2022-11-13T10:58:23;12.05;;;4.93;;
63714;SDS011;49858;48.956;9.076;2022-11-13T11:01:13;3.58;;;2.70;;
63714;SDS011;49858;48.956;9.076;2022-11-13T11:04:01;15.95;;;9.18;;
63714;SDS011;49858;48.956;9.076;2022-11-13T11:06:50;12.48;;;9.05;;
63714;SDS011;49858;48.956;9.076;2022-11-13T11:09:56;10.25;;;7.65;;
63714;SDS011;49858;48.956;9.076;2022-11-13T11:12:42;15.55;;;9.68;;
63714;SDS011;49858;48.956;9.076;2022-11-13T11:15:38;11.03;;;7.97;;
63714;SDS011;49858;48.956;9.076;2022-11-13T11:18:29;16.10;;;10.00;;
63714;SDS011;49858;48.956;9.076;2022-11-13T11:21:21;14.70;;;8.80;;
63714;SDS011;49858;48.956;9.076;2022-11-13T11:24:14;12.93;;;8.30;;
63714;SDS011;49858;48.956;9.076;2022-11-13T11:27:05;14.73;;;9.55;;
63714;SDS011;49858;48.956;9.076;2022-11-13T11:30:01;12.23;;;8.75;;
63714;SDS011;49858;48.956;9.076;2022-11-13T11:32:50;8.85;;;6.35;;
63714;SDS011;49858;48.956;9.076;2022-11-13T11:35:48;10.27;;;7.90;;
63714;SDS011;49858;48.956;9.076;2022-11-13T11:38:39;11.13;;;7.43;;
63714;SDS011;49858;48.956;9.076;2022-11-13T11:41:33;13.30;;;7.95;;
63714;SDS011;49858;48.956;9.076;2022-11-13T11:44:27;11.57;;;7.65;;
63714;SDS011;49858;48.956;9.076;2022-11-13T11:47:16;10.65;;;7.32;;
63714;SDS011;49858;48.956;9.076;2022-11-13T11:50:04;8.85;;;6.95;;
63714;SDS011;49858;48.956;9.076;2022-11-13T11:52:59;11.68;;;8.07;;
63714;SDS011;49858;48.956;9.076;2022-11-13T11:56:01;9.43;;;7.15;;
63714;SDS011;49858;48.956;9.076;2022-11-13T11:59:05;9.38;;;6.72;;
63714;SDS011;49858;48.956;9.076;2022-11-13T12:02:08;13.52;;;6.88;;
63714;SDS011;49858;48.956;9.076;2022-11-13T12:05:16;10.98;;;7.10;;
63714;SDS011;49858;48.956;9.076;2022-11-13T12:11:02;9.38;;;6.95;;
63714;SDS011;49858;48.956;9.076;2022-11-13T12:13:59;9.75;;;6.88;;
63714;SDS011;49858;48.956;9.076;2022-11-13T12:17:02;9.35;;;6.82;;
63714;SDS011;49858;48.956;9.076;2022-11-13T12:26:00;8.52;;;7.13;;
63714;SDS011;49858;48.956;9.076;2022-11-13T12:28:54;10.10;;;6.53;;
63714;SDS011;49858;48.956;9.076;2022-11-13T12:31:51;9.45;;;6.53;;
63714;SDS011;49858;48.956;9.076;2022-11-13T12:34:46;8.73;;;6.25;;
63714;SDS011;49858;48.956;9.076;2022-11-13T12:37:38;9.10;;;6.97;;
63714;SDS011;49858;48.956;9.076;2022-11-13T12:46:17;9.27;;;6.65;;
63714;SDS011;49858;48.956;9.076;2022-11-13T12:49:15;8.57;;;6.00;;
63714;SDS011;49858;48.956;9.076;2022-11-13T12:52:18;7.13;;;5.63;;
63714;SDS011;49858;48.956;9.076;2022-11-13T12:55:08;9.23;;;6.68;;
63714;SDS011;49858;48.956;9.076;2022-11-13T12:58:10;9.00;;;6.20;;
63714;SDS011;49858;48.956;9.076;2022-11-13T13:01:04;8.93;;;6.43;;
63714;SDS011;49858;48.956;9.076;2022-11-13T13:04:05;10.15;;;6.88;;
63714;SDS011;49858;48.956;9.076;2022-11-13T13:07:07;9.93;;;6.82;;
63714;SDS011;49858;48.956;9.076;2022-11-13T13:10:04;7.70;;;5.82;;
63714;SDS011;49858;48.956;9.076;2022-11-13T13:13:00;9.95;;;7.55;;
63714;SDS011;49858;48.956;9.076;2022-11-13T13:15:56;7.78;;;6.07;;
63714;SDS011;49858;48.956;9.076;2022-11-13T13:18:46;10.65;;;7.90;;
63714;SDS011;49858;48.956;9.076;2022-11-13T13:21:38;8.68;;;6.20;;
63714;SDS011;49858;48.956;9.076;2022-11-13T13:24:32;7.63;;;5.93;;
63714;SDS011;49858;48.956;9.076;2022-11-13T13:27:20;9.75;;;7.00;;
63714;SDS011;49858;48.956;9.076;2022-11-13T13:30:15;6.93;;;5.75;;
63714;SDS011;49858;48.956;9.076;2022-11-13T13:33:10;9.07;;;6.20;;
63714;SDS011;49858;48.956;9.076;2022-11-13T13:36:05;9.70;;;5.82;;
63714;SDS011;49858;48.956;9.076;2022-11-13T13:39:02;9.27;;;5.80;;
63714;SDS011;49858;48.956;9.076;2022-11-13T13:42:10;8.32;;;6.32;;
63714;SDS011;49858;48.956;9.076;2022-11-13T13:45:11;8.73;;;6.38;;
63714;SDS011;49858;48.956;9.076;2022-11-13T13:48:09;10.75;;;6.45;;
63714;SDS011;49858;48.956;9.076;2022-11-13T13:50:58;9.55;;;5.95;;
63714;SDS011;49858;48.956;9.076;2022-11-13T13:53:45;9.07;;;6.53;;
63714;SDS011;49858;48.956;9.076;2022-11-13T13:56:33;10.48;;;6.88;;
63714;SDS011;49858;48.956;9.076;2022-11-13T13:59:28;11.60;;;6.90;;
63714;SDS011;49858;48.956;9.076;2022-11-13T14:02:17;10.00;;;6.53;;
63714;SDS011;49858;48.956;9.076;2022-11-13T14:05:15;8.82;;;5.95;;
63714;SDS011;49858;48.956;9.076;2022-11-13T14:08:14;7.95;;;5.70;;
63714;SDS011;49858;48.956;9.076;2022-11-13T14:11:02;10.18;;;6.68;;
63714;SDS011;49858;48.956;9.076;2022-11-13T14:14:06;8.05;;;5.82;;
63714;SDS011;49858;48.956;9.076;2022-11-13T14:16:55;9.68;;;6.35;;
63714;SDS011;49858;48.956;9.076;2022-11-13T14:19:47;8.38;;;6.20;;
63714;SDS011;49858;48.956;9.076;2022-11-13T14:22:34;12.02;;;7.20;;
63714;SDS011;49858;48.956;9.076;2022-11-13T14:25:22;8.77;;;5.90;;
63714;SDS011;49858;48.956;9.076;2022-11-13T14:28:12;9.55;;;6.28;;
63714;SDS011;49858;48.956;9.076;2022-11-13T14:31:01;8.45;;;6.05;;
63714;SDS011;49858;48.956;9.076;2022-11-13T14:33:50;8.32;;;6.03;;
63714;SDS011;49858;48.956;9.076;2022-11-13T14:36:37;10.00;;;6.55;;
63714;SDS011;49858;48.956;9.076;2022-11-13T14:39:25;9.20;;;6.25;;
63714;SDS011;49858;48.956;9.076;2022-11-13T14:42:15;10.00;;;6.65;;
63714;SDS011;49858;48.956;9.076;2022-11-13T14:45:15;11.30;;;6.13;;
63714;SDS011;49858;48.956;9.076;2022-11-13T14:48:03;16.20;;;6.32;;
63714;SDS011;49858;48.956;9.076;2022-11-13T14:51:05;9.18;;;5.65;;
63714;SDS011;49858;48.956;9.076;2022-11-13T14:54:06;9.15;;;5.93;;
63714;SDS011;49858;48.956;9.076;2022-11-13T14:57:17;11.07;;;6.28;;
63714;SDS011;49858;48.956;9.076;2022-11-13T15:00:10;10.70;;;6.80;;
63714;SDS011;49858;48.956;9.076;2022-11-13T15:02:58;10.52;;;7.70;;
63714;SDS011;49858;48.956;9.076;2022-11-13T15:05:45;9.25;;;6.72;;
63714;SDS011;49858;48.956;9.076;2022-11-13T15:08:34;11.10;;;7.35;;
63714;SDS011;49858;48.956;9.076;2022-11-13T15:11:23;11.15;;;7.20;;
63714;SDS011;49858;48.956;9.076;2022-11-13T15:14:11;10.75;;;6.80;;
63714;SDS011;49858;48.956;9.076;2022-11-13T15:16:58;9.75;;;6.63;;
63714;SDS011;49858;48.956;9.076;2022-11-13T15:19:45;11.35;;;6.95;;
63714;SDS011;49858;48.956;9.076;2022-11-13T15:22:33;10.95;;;7.60;;
63714;SDS011;49858;48.956;9.076;2022-11-13T15:25:28;12.77;;;6.97;;
63714;SDS011;49858;48.956;9.076;2022-11-13T15:28:14;13.25;;;8.27;;
63714;SDS011;49858;48.956;9.076;2022-11-13T15:31:00;12.55;;;7.80;;
63714;SDS011;49858;48.956;9.076;2022-11-13T15:33:46;13.88;;;7.72;;
63714;SDS011;49858;48.956;9.076;2022-11-13T15:36:33;16.05;;;8.32;;
63714;SDS011;49858;48.956;9.076;2022-11-13T15:39:19;13.02;;;7.70;;
63714;SDS011;49858;48.956;9.076;2022-11-13T15:42:12;14.70;;;7.60;;
63714;SDS011;49858;48.956;9.076;2022-11-13T15:45:01;10.90;;;6.80;;
63714;SDS011;49858;48.956;9.076;2022-11-13T15:47:49;8.75;;;5.20;;
63714;SDS011;49858;48.956;9.076;2022-11-13T15:50:36;9.40;;;6.95;;
63714;SDS011;49858;48.956;9.076;2022-11-13T15:53:22;14.32;;;7.97;;
63714;SDS011;49858;48.956;9.076;2022-11-13T15:56:08;11.32;;;6.15;;
63714;SDS011;49858;48.956;9.076;2022-11-13T15:58:56;10.23;;;6.35;;
63714;SDS011;49858;48.956;9.076;2022-11-13T16:01:43;12.82;;;8.13;;
63714;SDS011;49858;48.956;9.076;2022-11-13T16:04:31;10.90;;;6.50;;
63714;SDS011;49858;48.956;9.076;2022-11-13T16:07:37;12.43;;;7.60;;
63714;SDS011;49858;48.956;9.076;2022-11-13T16:10:26;12.43;;;7.95;;
63714;SDS011;49858;48.956;9.076;2022-11-13T16:13:12;10.23;;;6.47;;
63714;SDS011;49858;48.956;9.076;2022-11-13T16:15:59;14.80;;;9.07;;
63714;SDS011;49858;48.956;9.076;2022-11-13T16:18:46;13.90;;;7.55;;
63714;SDS011;49858;48.956;9.076;2022-11-13T16:21:34;14.00;;;8.13;;
63714;SDS011;49858;48.956;9.076;2022-11-13T16:24:20;11.32;;;7.00;;
63714;SDS011;49858;48.956;9.076;2022-11-13T16:27:08;13.35;;;8.25;;
63714;SDS011;49858;48.956;9.076;2022-11-13T16:30:00;12.23;;;7.65;;
63714;SDS011;49858;48.956;9.076;2022-11-13T16:32:52;13.40;;;7.28;;
63714;SDS011;49858;48.956;9.076;2022-11-13T16:35:39;15.43;;;8.52;;
63714;SDS011;49858;48.956;9.076;2022-11-13T16:38:25;8.43;;;6.63;;
63714;SDS011;49858;48.956;9.076;2022-11-13T16:41:12;15.25;;;7.68;;
63714;SDS011;49858;48.956;9.076;2022-11-13T16:44:00;11.70;;;5.97;;
63714;SDS011;49858;48.956;9.076;2022-11-13T16:46:46;14.82;;;8.77;;
63714;SDS011;49858;48.956;9.076;2022-11-13T16:49:34;17.25;;;10.85;;
63714;SDS011;49858;48.956;9.076;2022-11-13T16:52:21;19.63;;;9.93;;
63714;SDS011;49858;48.956;9.076;2022-11-13T16:55:10;21.55;;;12.10;;